createdAt,value
2019-01-20T00:01:44.774Z,13.23
2019-01-20T00:04:14.934Z,11.23
2019-01-20T00:06:44.825Z,11.83
2019-01-20T00:09:14.770Z,9.90
2019-01-20T00:11:44.473Z,10.17
2019-01-20T00:14:13.742Z,15.20
2019-01-20T00:16:42.913Z,15.13
2019-01-20T00:19:12.035Z,11.57
2019-01-20T00:21:41.216Z,10.47
2019-01-20T00:24:10.281Z,10.63
2019-01-20T00:26:39.425Z,15.70
2019-01-20T00:29:08.553Z,17.63
2019-01-20T00:31:37.671Z,12.77
2019-01-20T00:34:07.005Z,14.93
2019-01-20T00:36:36.041Z,15.87
2019-01-20T00:39:08.455Z,18.97
2019-01-20T00:41:37.698Z,11.30
2019-01-20T00:44:06.841Z,16.57
2019-01-20T00:46:36.160Z,11.57
2019-01-20T00:49:05.499Z,18.57
2019-01-20T00:51:34.686Z,22.20
2019-01-20T00:54:06.132Z,18.03
2019-01-20T00:56:34.778Z,14.20
2019-01-20T00:59:03.994Z,14.40
2019-01-20T01:01:33.234Z,12.03
2019-01-20T01:04:02.397Z,10.87
2019-01-20T01:06:31.617Z,14.53
2019-01-20T01:09:00.736Z,14.00
2019-01-20T01:11:31.653Z,22.23
2019-01-20T01:14:00.836Z,14.07
2019-01-20T01:16:32.779Z,13.77
2019-01-20T01:19:04.784Z,15.37
2019-01-20T01:21:33.820Z,16.77
2019-01-20T01:24:03.138Z,12.80
2019-01-20T01:26:32.044Z,19.20
2019-01-20T01:29:01.081Z,9.37
2019-01-20T01:31:30.058Z,14.83
2019-01-20T01:34:01.584Z,11.57
2019-01-20T01:36:30.656Z,10.37
2019-01-20T01:39:04.328Z,13.10
2019-01-20T01:41:39.032Z,12.93
2019-01-20T01:44:04.674Z,10.07
2019-01-20T01:46:33.832Z,12.27
2019-01-20T01:49:03.017Z,12.27
2019-01-20T01:51:32.239Z,14.47
2019-01-20T01:54:03.646Z,9.63
2019-01-20T01:56:32.571Z,10.47
2019-01-20T01:59:01.450Z,10.67
2019-01-20T02:01:30.384Z,12.47
2019-01-20T02:03:59.273Z,14.17
2019-01-20T02:06:28.205Z,12.77
2019-01-20T02:08:57.083Z,11.33
2019-01-20T02:11:25.923Z,11.53
2019-01-20T02:13:54.871Z,12.10
2019-01-20T02:16:23.863Z,11.80
2019-01-20T02:18:52.814Z,15.63
2019-01-20T02:21:21.747Z,14.57
2019-01-20T02:23:50.682Z,17.57
2019-01-20T02:26:19.653Z,15.90
2019-01-20T02:28:48.622Z,22.37
2019-01-20T02:31:17.555Z,13.47
2019-01-20T02:33:46.566Z,10.90
2019-01-20T02:36:15.410Z,19.30
2019-01-20T02:38:44.390Z,15.80
2019-01-20T02:41:13.312Z,11.37
2019-01-20T02:43:42.294Z,13.23
2019-01-20T02:46:11.231Z,13.77
2019-01-20T02:48:40.382Z,15.13
2019-01-20T02:51:09.391Z,15.10
2019-01-20T02:53:38.250Z,11.10
2019-01-20T02:56:07.291Z,9.70
2019-01-20T02:58:36.258Z,11.17
2019-01-20T03:01:05.674Z,12.20
2019-01-20T03:03:34.571Z,16.70
2019-01-20T03:06:03.677Z,14.67
2019-01-20T03:08:32.784Z,17.83
2019-01-20T03:11:01.736Z,16.20
2019-01-20T03:13:30.662Z,11.17
2019-01-20T03:15:59.550Z,8.53
2019-01-20T03:18:28.478Z,13.47
2019-01-20T03:20:57.386Z,11.83
2019-01-20T03:23:26.405Z,9.90
2019-01-20T03:25:55.280Z,14.43
2019-01-20T03:28:24.279Z,12.23
2019-01-20T03:30:53.168Z,15.63
2019-01-20T03:33:22.030Z,10.60
2019-01-20T03:35:51.075Z,10.73
2019-01-20T03:38:19.950Z,20.80
2019-01-20T03:40:48.995Z,13.27
2019-01-20T03:43:17.977Z,11.13
2019-01-20T03:45:47.038Z,17.43
2019-01-20T03:48:15.986Z,14.40
2019-01-20T03:50:44.993Z,14.30
2019-01-20T03:53:13.859Z,14.50
2019-01-20T03:55:42.769Z,12.23
2019-01-20T03:58:11.743Z,19.37
2019-01-20T04:00:40.711Z,16.90
2019-01-20T04:03:09.758Z,12.77
2019-01-20T04:05:38.765Z,15.67
2019-01-20T04:08:07.758Z,14.93
2019-01-20T04:10:36.711Z,12.83
2019-01-20T04:13:05.716Z,22.20
2019-01-20T04:15:34.591Z,22.20
2019-01-20T04:18:05.200Z,18.47
2019-01-20T04:20:34.153Z,12.40
2019-01-20T04:23:03.206Z,22.03
2019-01-20T04:25:32.086Z,13.03
2019-01-20T04:28:00.979Z,15.73
2019-01-20T04:30:29.842Z,18.73
2019-01-20T04:32:58.707Z,8.57
2019-01-20T04:35:27.730Z,12.60
2019-01-20T04:37:56.706Z,12.20
2019-01-20T04:40:25.665Z,15.20
2019-01-20T04:42:54.638Z,12.53
2019-01-20T04:45:23.679Z,17.67
2019-01-20T04:47:52.744Z,18.37
2019-01-20T04:50:23.403Z,17.37
2019-01-20T04:52:53.151Z,11.80
2019-01-20T04:55:22.519Z,14.27
2019-01-20T04:57:55.625Z,18.60
2019-01-20T05:00:28.509Z,15.07
2019-01-20T05:02:57.457Z,16.03
2019-01-20T05:05:26.489Z,16.23
2019-01-20T05:07:55.805Z,13.77
2019-01-20T05:10:24.766Z,15.10
2019-01-20T05:12:56.011Z,21.53
2019-01-20T05:15:29.409Z,18.80
2019-01-20T05:17:58.423Z,13.73
2019-01-20T05:20:27.440Z,9.30
2019-01-20T05:22:56.500Z,22.60
2019-01-20T05:25:25.444Z,11.97
2019-01-20T05:27:54.340Z,9.17
2019-01-20T05:30:25.259Z,13.80
2019-01-20T05:32:54.322Z,14.17
2019-01-20T05:35:23.413Z,13.77
2019-01-20T05:37:52.430Z,15.57
2019-01-20T05:40:22.513Z,15.20
2019-01-20T05:42:51.470Z,14.77
2019-01-20T05:45:22.634Z,13.30
2019-01-20T05:47:51.605Z,11.23
2019-01-20T05:50:20.622Z,13.20
2019-01-20T05:52:49.588Z,16.10
2019-01-20T05:55:18.610Z,13.13
2019-01-20T05:57:47.579Z,13.00
2019-01-20T06:00:25.225Z,16.30
2019-01-20T06:02:54.097Z,14.83
2019-01-20T06:05:23.618Z,11.93
2019-01-20T06:07:52.678Z,16.80
2019-01-20T06:10:21.779Z,11.20
2019-01-20T06:12:54.257Z,14.90
2019-01-20T06:15:23.909Z,17.50
2019-01-20T06:17:54.247Z,16.37
2019-01-20T06:20:23.266Z,13.20
2019-01-20T06:22:53.662Z,19.47
2019-01-20T06:25:22.938Z,22.40
2019-01-20T06:27:51.937Z,13.63
2019-01-20T06:30:25.925Z,11.73
2019-01-20T06:32:54.995Z,12.37
2019-01-20T06:35:24.676Z,13.57
2019-01-20T06:37:53.676Z,17.13
2019-01-20T06:40:30.004Z,19.93
2019-01-20T06:43:02.197Z,18.50
2019-01-20T06:45:29.346Z,12.63
2019-01-20T06:47:58.209Z,25.80
2019-01-20T06:50:27.162Z,17.77
2019-01-20T06:52:56.110Z,9.40
2019-01-20T06:55:25.154Z,10.33
2019-01-20T06:57:54.182Z,14.20
2019-01-20T07:00:24.407Z,17.17
2019-01-20T07:02:53.398Z,15.37
2019-01-20T07:05:22.575Z,11.70
2019-01-20T07:07:51.625Z,12.60
2019-01-20T07:10:20.961Z,15.53
2019-01-20T07:12:50.017Z,15.60
2019-01-20T07:15:21.289Z,16.57
2019-01-20T07:17:50.327Z,16.13
2019-01-20T07:20:19.626Z,13.20
2019-01-20T07:22:50.694Z,14.27
2019-01-20T07:25:19.929Z,14.90
2019-01-20T07:27:48.974Z,12.57
2019-01-20T07:30:19.934Z,22.67
2019-01-20T07:32:50.651Z,27.47
2019-01-20T07:35:19.897Z,15.10
2019-01-20T07:37:49.062Z,13.33
2019-01-20T07:40:23.674Z,9.63
2019-01-20T07:42:52.713Z,15.30
2019-01-20T07:45:22.698Z,12.57
2019-01-20T07:47:51.643Z,17.40
2019-01-20T07:50:26.559Z,24.00
2019-01-20T07:52:57.586Z,17.33
2019-01-20T07:55:26.517Z,12.23
2019-01-20T07:57:55.923Z,10.87
2019-01-20T08:00:25.925Z,21.83
2019-01-20T08:02:54.934Z,18.60
2019-01-20T08:05:23.993Z,19.47
2019-01-20T08:07:52.945Z,18.83
2019-01-20T08:10:27.656Z,21.13
2019-01-20T08:12:56.811Z,15.77
2019-01-20T08:15:29.228Z,16.37
2019-01-20T08:17:58.387Z,15.80
2019-01-20T08:20:27.415Z,19.17
2019-01-20T08:22:56.373Z,18.87
2019-01-20T08:25:25.389Z,21.33
2019-01-20T08:27:54.637Z,15.37
2019-01-20T08:30:27.906Z,20.33
2019-01-20T08:32:58.019Z,20.60
2019-01-20T08:35:27.031Z,21.93
2019-01-20T08:37:56.069Z,19.67
2019-01-20T08:40:29.909Z,26.93
2019-01-20T08:42:59.017Z,20.17
2019-01-20T08:46:18.637Z,20.43
2019-01-20T08:48:49.359Z,15.23
2019-01-20T08:51:20.113Z,17.03
2019-01-20T08:53:49.111Z,19.50
2019-01-20T08:56:24.515Z,20.50
2019-01-20T08:58:53.260Z,23.33
2019-01-20T09:01:22.780Z,18.63
2019-01-20T09:03:51.751Z,18.57
2019-01-20T09:06:21.815Z,18.63
2019-01-20T09:08:51.066Z,19.53
2019-01-20T09:11:19.939Z,16.57
2019-01-20T09:13:48.884Z,20.47
2019-01-20T09:16:17.773Z,20.20
2019-01-20T09:18:46.697Z,17.90
2019-01-20T09:21:15.727Z,21.70
2019-01-20T09:23:44.591Z,22.13
2019-01-20T09:26:13.583Z,22.30
2019-01-20T09:28:42.583Z,20.10
2019-01-20T09:31:11.603Z,20.13
2019-01-20T09:33:40.538Z,21.40
2019-01-20T09:36:09.557Z,17.63
2019-01-20T09:38:38.522Z,20.30
2019-01-20T09:41:07.534Z,20.13
2019-01-20T09:43:36.466Z,18.30
2019-01-20T09:46:05.605Z,14.40
2019-01-20T09:48:34.539Z,18.40
2019-01-20T09:51:03.551Z,15.33
2019-01-20T09:53:32.399Z,26.37
2019-01-20T09:56:01.327Z,18.60
2019-01-20T09:58:30.213Z,18.53
2019-01-20T10:00:59.154Z,18.13
2019-01-20T10:03:28.165Z,16.17
2019-01-20T10:05:57.142Z,37.63
2019-01-20T10:08:26.152Z,23.20
2019-01-20T10:10:55.323Z,17.20
2019-01-20T10:13:24.346Z,17.13
2019-01-20T10:15:53.219Z,17.73
2019-01-20T10:18:22.241Z,18.00
2019-01-20T10:20:51.222Z,19.43
2019-01-20T10:23:20.257Z,18.13
2019-01-20T10:25:50.462Z,17.27
2019-01-20T10:28:22.195Z,20.47
2019-01-20T10:30:52.533Z,12.37
2019-01-20T10:33:21.670Z,22.73
2019-01-20T10:35:56.320Z,17.53
2019-01-20T10:38:25.385Z,29.73
2019-01-20T10:40:54.447Z,15.07
2019-01-20T10:43:23.308Z,19.27
2019-01-20T10:45:52.520Z,21.23
2019-01-20T10:48:21.745Z,21.37
2019-01-20T10:50:52.457Z,15.30
2019-01-20T10:53:21.712Z,19.40
2019-01-20T10:55:50.959Z,19.17
2019-01-20T10:58:19.878Z,16.87
2019-01-20T11:00:48.932Z,19.10
2019-01-20T11:03:17.915Z,21.07
2019-01-20T11:05:46.966Z,18.33
2019-01-20T11:08:17.824Z,16.57
2019-01-20T11:10:48.454Z,17.67
2019-01-20T11:13:17.510Z,21.43
2019-01-20T11:15:46.453Z,14.93
2019-01-20T11:18:15.610Z,16.93
2019-01-20T11:20:46.706Z,19.67
2019-01-20T11:23:17.209Z,15.07
2019-01-20T11:25:46.176Z,22.97
2019-01-20T11:28:15.506Z,16.57
2019-01-20T11:30:44.659Z,15.83
2019-01-20T11:33:13.609Z,17.87
2019-01-20T11:35:42.545Z,18.10
2019-01-20T11:38:12.625Z,22.43
2019-01-20T11:40:41.714Z,16.33
2019-01-20T11:43:10.866Z,23.07
2019-01-20T11:45:39.934Z,16.70
2019-01-20T11:48:08.949Z,19.57
2019-01-20T11:50:37.864Z,18.33
2019-01-20T11:53:06.827Z,17.73
2019-01-20T11:55:42.666Z,19.90
2019-01-20T11:58:15.755Z,15.50
2019-01-20T12:00:55.464Z,15.67
2019-01-20T12:03:24.648Z,27.83
2019-01-20T12:05:53.485Z,20.07
2019-01-20T12:08:22.359Z,17.27
2019-01-20T12:10:51.405Z,19.67
2019-01-20T12:13:23.213Z,15.67
2019-01-20T12:15:52.157Z,20.90
2019-01-20T12:18:21.239Z,14.33
2019-01-20T12:20:50.134Z,24.13
2019-01-20T12:23:19.017Z,16.70
2019-01-20T12:25:49.502Z,22.53
2019-01-20T12:28:18.909Z,21.53
2019-01-20T12:30:47.982Z,18.80
2019-01-20T12:33:17.085Z,16.47
2019-01-20T12:35:46.154Z,15.83
2019-01-20T12:38:16.650Z,13.17
2019-01-20T12:40:47.645Z,17.37
2019-01-20T12:43:16.632Z,13.77
2019-01-20T12:45:45.899Z,19.53
2019-01-20T12:48:16.633Z,20.93
2019-01-20T12:50:45.609Z,18.13
2019-01-20T12:53:14.959Z,19.20
2019-01-20T12:55:44.166Z,16.87
2019-01-20T12:58:13.593Z,18.07
2019-01-20T13:00:42.589Z,15.10
2019-01-20T13:03:11.502Z,19.00
2019-01-20T13:05:40.364Z,16.37
2019-01-20T13:08:09.419Z,19.63
2019-01-20T13:10:38.425Z,24.27
2019-01-20T13:13:07.752Z,16.13
2019-01-20T13:15:36.711Z,15.60
2019-01-20T13:18:07.328Z,18.13
2019-01-20T13:20:38.011Z,18.43
2019-01-20T13:23:07.145Z,17.23
2019-01-20T13:25:36.610Z,17.57
2019-01-20T13:28:06.083Z,18.67
2019-01-20T13:30:35.286Z,13.43
2019-01-20T13:33:06.043Z,14.50
2019-01-20T13:35:35.125Z,15.63
2019-01-20T13:38:10.490Z,18.27
2019-01-20T13:40:45.301Z,18.63
2019-01-20T13:43:14.306Z,13.00
2019-01-20T13:45:43.299Z,23.03
2019-01-20T13:48:12.515Z,24.27
2019-01-20T13:50:41.935Z,15.70
2019-01-20T13:53:13.870Z,21.37
2019-01-20T13:55:42.856Z,16.90
2019-01-20T13:58:12.202Z,14.43
2019-01-20T14:00:41.262Z,17.77
2019-01-20T14:03:24.211Z,18.53
2019-01-20T14:05:53.738Z,14.03
2019-01-20T14:08:22.733Z,15.43
2019-01-20T14:10:52.257Z,16.13
2019-01-20T14:13:21.326Z,20.47
2019-01-20T14:15:50.488Z,17.73
2019-01-20T14:18:19.577Z,14.37
2019-01-20T14:20:48.545Z,16.50
2019-01-20T14:23:22.054Z,13.53
2019-01-20T14:25:51.265Z,13.93
2019-01-20T14:28:21.183Z,13.77
2019-01-20T14:30:50.494Z,12.93
2019-01-20T14:33:19.365Z,17.87
2019-01-20T14:35:49.602Z,13.80
2019-01-20T14:38:19.334Z,15.13
2019-01-20T14:40:48.762Z,17.77
2019-01-20T14:43:17.828Z,14.87
2019-01-20T14:45:47.135Z,13.73
2019-01-20T14:48:16.113Z,16.83
2019-01-20T14:50:45.214Z,15.53
2019-01-20T14:53:14.614Z,14.63
2019-01-20T14:55:43.658Z,15.60
2019-01-20T14:58:14.235Z,10.20
2019-01-20T15:00:43.805Z,14.90
2019-01-20T15:03:13.172Z,16.83
2019-01-20T15:05:44.022Z,11.47
2019-01-20T15:08:13.038Z,15.47
2019-01-20T15:10:42.326Z,17.10
2019-01-20T15:13:11.670Z,17.73
2019-01-20T15:15:42.750Z,14.03
2019-01-20T15:18:12.990Z,12.63
2019-01-20T15:20:43.455Z,12.63
2019-01-20T15:23:12.783Z,20.07
2019-01-20T15:25:44.015Z,14.50
2019-01-20T15:28:13.174Z,13.50
2019-01-20T15:30:47.411Z,13.77
2019-01-20T15:33:18.550Z,17.93
2019-01-20T15:35:48.693Z,16.73
2019-01-20T15:38:23.180Z,12.13
2019-01-20T15:40:58.142Z,18.10
2019-01-20T15:43:27.173Z,15.13
2019-01-20T15:45:59.309Z,16.60
2019-01-20T15:48:28.462Z,18.97
2019-01-20T15:50:58.110Z,14.83
2019-01-20T15:53:27.439Z,27.00
2019-01-20T15:55:56.434Z,15.80
2019-01-20T15:58:26.722Z,15.33
2019-01-20T16:00:56.434Z,18.83
2019-01-20T16:03:25.715Z,11.60
2019-01-20T16:05:55.043Z,13.47
2019-01-20T16:08:24.310Z,14.97
2019-01-20T16:10:54.343Z,17.13
2019-01-20T16:13:24.491Z,14.73
2019-01-20T16:15:55.002Z,13.13
2019-01-20T16:18:23.853Z,20.93
2019-01-20T16:20:53.134Z,18.37
2019-01-20T16:23:22.320Z,12.60
2019-01-20T16:25:51.532Z,14.63
2019-01-20T16:28:23.645Z,17.20
2019-01-20T16:30:53.075Z,15.17
2019-01-20T16:33:25.022Z,18.83
2019-01-20T16:35:54.808Z,18.90
2019-01-20T16:38:25.905Z,16.33
2019-01-20T16:40:56.877Z,12.80
2019-01-20T16:43:26.805Z,18.63
2019-01-20T16:45:56.205Z,16.67
2019-01-20T16:48:27.440Z,17.00
2019-01-20T16:50:59.085Z,15.77
2019-01-20T16:53:29.688Z,18.87
2019-01-20T16:56:00.764Z,19.60
2019-01-20T16:58:32.343Z,14.20
2019-01-20T17:01:04.350Z,16.87
2019-01-20T17:03:33.822Z,15.33
2019-01-20T17:06:04.940Z,21.53
2019-01-20T17:08:33.819Z,15.20
2019-01-20T17:11:04.734Z,19.50
2019-01-20T17:13:33.995Z,17.87
2019-01-20T17:16:05.101Z,18.03
2019-01-20T17:18:34.791Z,22.00
2019-01-20T17:21:07.451Z,25.17
2019-01-20T17:23:41.073Z,15.27
2019-01-20T17:26:10.527Z,19.73
2019-01-20T17:28:39.804Z,13.77
2019-01-20T17:31:08.834Z,14.73
2019-01-20T17:33:39.811Z,17.10
2019-01-20T17:36:09.068Z,18.60
2019-01-20T17:38:40.684Z,15.10
2019-01-20T17:41:11.148Z,17.13
2019-01-20T17:43:47.310Z,20.93
2019-01-20T17:46:18.008Z,18.73
2019-01-20T17:48:47.418Z,16.10
2019-01-20T17:51:18.924Z,17.03
2019-01-20T17:53:54.830Z,19.53
2019-01-20T17:56:29.631Z,14.83
2019-01-20T17:58:59.092Z,18.77
2019-01-20T18:01:28.539Z,15.00
2019-01-20T18:03:59.265Z,14.47
2019-01-20T18:06:28.466Z,17.73
2019-01-20T18:08:57.698Z,18.83
2019-01-20T18:11:26.702Z,19.40
2019-01-20T18:13:55.650Z,26.20
2019-01-20T18:16:24.777Z,18.37
2019-01-20T18:18:54.930Z,16.93
2019-01-20T18:21:23.938Z,21.30
2019-01-20T18:23:55.152Z,21.93
2019-01-20T18:26:23.938Z,17.87
2019-01-20T18:28:52.902Z,18.17
2019-01-20T18:31:22.108Z,22.60
2019-01-20T18:33:51.076Z,18.90
2019-01-20T18:36:20.345Z,19.67
2019-01-20T18:38:49.591Z,20.30
2019-01-20T18:41:18.723Z,22.63
2019-01-20T18:43:47.818Z,18.83
2019-01-20T18:46:16.906Z,22.83
2019-01-20T18:48:45.817Z,20.30
2019-01-20T18:51:14.912Z,19.37
2019-01-20T18:53:43.970Z,16.33
2019-01-20T18:56:12.981Z,25.03
2019-01-20T18:58:42.002Z,19.80
2019-01-20T19:01:12.602Z,24.87
2019-01-20T19:03:41.476Z,18.67
2019-01-20T19:06:10.409Z,17.40
2019-01-20T19:08:39.282Z,21.30
2019-01-20T19:11:08.385Z,26.83
2019-01-20T19:13:37.302Z,25.77
2019-01-20T19:16:08.997Z,20.60
2019-01-20T19:18:36.919Z,19.43
2019-01-20T19:21:05.957Z,22.77
2019-01-20T19:23:34.894Z,21.57
2019-01-20T19:26:03.741Z,25.27
2019-01-20T19:28:32.690Z,26.03
2019-01-20T19:31:01.970Z,18.50
2019-01-20T19:33:31.330Z,23.07
2019-01-20T19:36:00.282Z,24.87
2019-01-20T19:38:29.274Z,20.90
2019-01-20T19:40:58.413Z,21.07
2019-01-20T19:43:27.548Z,19.80
2019-01-20T19:45:56.494Z,22.77
2019-01-20T19:48:26.084Z,22.87
2019-01-20T19:50:55.474Z,20.93
2019-01-20T19:53:24.692Z,21.27
2019-01-20T19:55:54.362Z,25.47
2019-01-20T19:58:23.741Z,19.37
2019-01-20T20:00:52.885Z,24.27
2019-01-20T20:03:21.894Z,20.70
2019-01-20T20:05:50.879Z,18.70
2019-01-20T20:08:20.390Z,26.13
2019-01-20T20:10:49.687Z,20.63
2019-01-20T20:13:18.615Z,18.93
2019-01-20T20:15:47.694Z,25.07
2019-01-20T20:18:16.776Z,27.00
2019-01-20T20:20:46.056Z,22.13
2019-01-20T20:23:15.109Z,27.07
2019-01-20T20:25:46.017Z,20.63
2019-01-20T20:28:15.065Z,19.90
2019-01-20T20:30:44.377Z,24.70
2019-01-20T20:33:13.354Z,24.63
2019-01-20T20:35:42.457Z,26.10
2019-01-20T20:38:11.418Z,29.10
2019-01-20T20:40:40.678Z,26.17
2019-01-20T20:43:09.681Z,22.50
2019-01-20T20:45:38.793Z,28.87
2019-01-20T20:48:08.113Z,20.97
2019-01-20T20:50:37.007Z,26.47
2019-01-20T20:53:06.142Z,25.47
2019-01-20T20:55:35.095Z,23.70
2019-01-20T20:58:04.391Z,20.50
2019-01-20T21:00:42.891Z,23.50
2019-01-20T21:03:19.125Z,40.63
2019-01-20T21:05:49.246Z,23.83
2019-01-20T21:08:20.921Z,24.03
2019-01-20T21:10:49.926Z,22.97
2019-01-20T21:13:19.020Z,26.50
2019-01-20T21:15:48.275Z,38.53
2019-01-20T21:18:17.357Z,28.37
2019-01-20T21:20:46.326Z,34.43
2019-01-20T21:23:15.285Z,25.67
2019-01-20T21:25:44.251Z,31.37
2019-01-20T21:28:13.626Z,26.67
2019-01-20T21:30:43.027Z,33.67
2019-01-20T21:33:11.917Z,32.47
2019-01-20T21:35:40.783Z,26.23
2019-01-20T21:38:09.834Z,28.20
2019-01-20T21:40:38.858Z,29.23
2019-01-20T21:43:07.747Z,27.53
2019-01-20T21:45:36.754Z,21.50
2019-01-20T21:48:05.791Z,31.43
2019-01-20T21:50:34.840Z,27.37
2019-01-20T21:53:04.164Z,29.03
2019-01-20T21:55:33.098Z,23.33
2019-01-20T21:58:02.098Z,24.40
2019-01-20T22:00:31.116Z,31.23
2019-01-20T22:03:00.352Z,28.93
2019-01-20T22:05:29.351Z,24.90
2019-01-20T22:07:58.260Z,27.37
2019-01-20T22:10:27.326Z,27.47
2019-01-20T22:12:56.483Z,29.67
2019-01-20T22:15:25.513Z,31.10
2019-01-20T22:17:54.477Z,24.27
2019-01-20T22:20:24.030Z,25.63
2019-01-20T22:22:53.883Z,22.97
2019-01-20T22:25:22.961Z,24.67
2019-01-20T22:27:52.054Z,25.00
2019-01-20T22:30:23.634Z,26.50
2019-01-20T22:32:53.155Z,28.30
2019-01-20T22:35:22.175Z,20.23
2019-01-20T22:37:51.509Z,27.37
2019-01-20T22:40:20.572Z,19.83
2019-01-20T22:42:49.740Z,23.83
2019-01-20T22:45:21.141Z,23.67
2019-01-20T22:47:50.594Z,29.20
2019-01-20T22:50:19.932Z,25.67
2019-01-20T22:52:52.800Z,18.50
2019-01-20T22:55:21.861Z,24.77
2019-01-20T22:57:50.954Z,21.73
2019-01-20T23:00:39.569Z,27.17
2019-01-20T23:03:08.736Z,28.70
2019-01-20T23:05:37.839Z,23.53
2019-01-20T23:08:06.973Z,27.30
2019-01-20T23:10:36.421Z,35.83
2019-01-20T23:13:05.709Z,21.53
2019-01-20T23:15:34.898Z,26.67
2019-01-20T23:18:05.197Z,25.30
2019-01-20T23:20:34.627Z,23.20
2019-01-20T23:23:03.867Z,23.13
2019-01-20T23:25:32.750Z,28.23
2019-01-20T23:28:01.666Z,24.03
2019-01-20T23:30:30.739Z,33.17
2019-01-20T23:32:59.817Z,23.03
2019-01-20T23:35:28.686Z,25.33
2019-01-20T23:37:57.626Z,31.33
2019-01-20T23:40:26.642Z,25.47
2019-01-20T23:42:55.612Z,20.73
2019-01-20T23:45:24.585Z,25.33
2019-01-20T23:47:53.827Z,32.50
2019-01-20T23:50:22.870Z,28.80
2019-01-20T23:52:51.931Z,33.53
2019-01-20T23:55:20.966Z,20.97
2019-01-20T23:57:49.943Z,26.87
